Deer Park, WA (99006)

3:16 PM PST on January 20, 2017 (GMT -0800)
MD6242 | | Change Station

Elev 2181 ft 47.91 °N, 117.55 °W | Updated 2 minutes ago

Clear
Clear
42.0 °F
Feels Like 42 °F
N
0.0
Wind Variable Wind from NW
Gusts 2.0 mph

Today
High -- | Low -- °F
--% Chance of Precip.
Yesterday
High -- | Low -- °F
Precip. -- in
Pressure 29.30 in
Visibility 10.0 miles
Clouds Clear
Windchill 42 °F
Dew Point 34 °F
Humidity 72%
Rainfall in
Snow Depth Not available.
7:30 AM 4:32 PM
Last Quarter, 40% visible
METAR KDEW 202253Z AUTO 04010KT 10SM CLR 06/M01 A2926 RMK AO2 SLP921 T00561006
Pressure 29.30 in
Visibility 10.0 miles
Clouds Clear
Windchill 42 °F
Dew Point 34 °F
Humidity 72%
Rainfall in
Snow Depth Not available.
7:30 AM 4:32 PM
Last Quarter, 40% visible
METAR KDEW 202253Z AUTO 04010KT 10SM CLR 06/M01 A2926 RMK AO2 SLP921 T00561006

Get Your Daily Forecast Email!

Thanks for signing up!

Be on the lookout for a verification email in your inbox.

You'll start receiving the daily forecast at 8 AM.

×

10-Day Weather Forecast

Almanac

Astronomy

Jan. 20, 2017 Rise Set
Actual Time
Civil Twilight
Nautical Twilight
Astronomical Twilight
Moon
Length of Visible Light
Length of Day
Tomorrow will be .
, % of the Moon is Illuminated

Today's Extremes

State Highs State Lows

Community

WunderPhotos

Upload Photos

1,962,540 photos uploaded!

WunderBlog® & News

Nearby

Air Quality

  Air Quality AQ Index Pollutant
Not available.

Snow Depth

Station Depth Elevation

Earthquake Activity

City Distance Mag. Time & Date
Minimum magnitude displayed is 2.5.

Coastal Water Temperatures

Place Temperature

Stations

Nearby Weather Stations

Station Location Temp. Windchill Dew Point Humidity Wind Precip. Elev Updated Type
                   

Watches & Warnings

There are currently no watches in effect.